Time;durP1;ratioP1;P1;durP2;ratioP2;P2;SDS_P1;SDS_P2;PMS_P1;PMS_P2;Temp;Humidity;BMP_temperature;BMP_pressure;BME280_temperature;BME280_humidity;BME280_pressure;Samples;Min_cycle;Max_cycle;Signal;HPM_P1;HPM_P2
2023/04/06 00:01:57;;;;;;;11.27;4.78;;;2.20;98.40;;;;;;5097705;28;20051;-79
2023/04/06 00:04:23;;;;;;;12.63;5.70;;;2.20;98.60;;;;;;5115651;28;20468;-78
2023/04/06 00:06:49;;;;;;;9.48;5.22;;;2.20;98.20;;;;;;5080531;28;20048;-79
2023/04/06 00:09:14;;;;;;;13.07;5.47;;;2.10;98.50;;;;;;5080969;28;20047;-79
2023/04/06 00:11:40;;;;;;;11.85;5.18;;;2.10;98.60;;;;;;5097054;28;20050;-79
2023/04/06 00:14:06;;;;;;;10.02;5.07;;;2.00;98.50;;;;;;5097668;28;20040;-78
2023/04/06 00:16:32;;;;;;;12.90;4.72;;;2.00;98.60;;;;;;5114190;28;20043;-79
2023/04/06 00:18:58;;;;;;;10.95;5.30;;;2.00;98.90;;;;;;5064115;28;20107;-78
2023/04/06 00:21:23;;;;;;;16.90;5.75;;;2.00;98.80;;;;;;5097134;28;20043;-78
2023/04/06 00:23:49;;;;;;;13.05;5.60;;;2.00;99.00;;;;;;5080354;28;20051;-78
2023/04/06 00:26:15;;;;;;;9.85;5.18;;;2.00;98.70;;;;;;5098430;28;20039;-78
2023/04/06 00:28:41;;;;;;;12.15;5.63;;;2.00;99.00;;;;;;5097816;28;20506;-77
2023/04/06 00:31:07;;;;;;;12.90;5.53;;;2.00;99.10;;;;;;5097602;28;20125;-79
2023/04/06 00:33:32;;;;;;;10.32;5.88;;;1.90;99.10;;;;;;5080956;28;20479;-78
2023/04/06 00:35:58;;;;;;;13.00;5.57;;;2.00;99.10;;;;;;5097265;28;20082;-77
2023/04/06 00:38:24;;;;;;;13.02;5.50;;;1.90;99.30;;;;;;5097291;28;20180;-78
2023/04/06 00:40:50;;;;;;;12.98;5.57;;;1.90;99.30;;;;;;5115633;28;20048;-79
2023/04/06 00:43:15;;;;;;;12.18;5.65;;;1.90;99.30;;;;;;5096659;28;20043;-77
2023/04/06 00:45:42;;;;;;;10.55;5.63;;;1.90;99.20;;;;;;5092914;28;20446;-79
2023/04/06 00:48:08;;;;;;;9.63;5.15;;;1.90;99.30;;;;;;5075883;28;20496;-79
2023/04/06 00:50:35;;;;;;;11.48;5.50;;;1.90;99.40;;;;;;5094308;28;20043;-77
2023/04/06 00:53:01;;;;;;;13.00;5.07;;;1.90;99.50;;;;;;5094059;28;20113;-79
2023/04/06 00:55:28;;;;;;;15.07;5.45;;;1.90;99.50;;;;;;5060539;28;20425;-78
2023/04/06 00:57:54;;;;;;;11.25;5.47;;;1.90;99.50;;;;;;5093053;28;20048;-78
2023/04/06 01:00:20;;;;;;;9.85;5.55;;;1.90;99.40;;;;;;5076160;28;20051;-78
2023/04/06 01:02:47;;;;;;;14.30;5.85;;;1.90;99.50;;;;;;5076351;28;20100;-79
2023/04/06 01:05:13;;;;;;;13.40;5.75;;;1.90;99.80;;;;;;5092635;28;20052;-78
2023/04/06 01:07:39;;;;;;;16.20;5.82;;;1.80;99.70;;;;;;5092441;28;20245;-78
2023/04/06 01:10:06;;;;;;;12.07;5.68;;;1.80;99.40;;;;;;5094275;28;20173;-78
2023/04/06 01:12:32;;;;;;;13.38;5.68;;;1.80;99.50;;;;;;5093007;28;20070;-77
2023/04/06 01:14:58;;;;;;;13.10;5.72;;;1.80;99.80;;;;;;5076404;28;20052;-79
2023/04/06 01:17:23;;;;;;;11.02;5.55;;;1.80;99.90;;;;;;5075368;28;20040;-79
2023/04/06 01:19:51;;;;;;;11.43;5.53;;;1.80;99.80;;;;;;5093758;28;20059;-78
2023/04/06 01:22:17;;;;;;;10.45;5.20;;;1.80;99.90;;;;;;5092800;28;20123;-80
2023/04/06 01:24:43;;;;;;;15.75;5.47;;;1.70;99.90;;;;;;5093703;28;20040;-78
2023/04/06 01:27:08;;;;;;;11.50;5.07;;;1.70;99.90;;;;;;5093067;28;20051;-78
2023/04/06 01:29:35;;;;;;;13.55;6.03;;;1.70;99.90;;;;;;5093544;28;20141;-77
2023/04/06 01:32:00;;;;;;;11.13;5.38;;;1.70;99.90;;;;;;5076050;28;20084;-77
2023/04/06 01:34:26;;;;;;;11.30;5.45;;;1.80;99.80;;;;;;5092792;28;20090;-78
2023/04/06 01:36:52;;;;;;;12.05;6.00;;;1.70;99.90;;;;;;5059818;28;20075;-78
2023/04/06 01:39:18;;;;;;;11.85;5.95;;;1.70;99.90;;;;;;5076118;28;20097;-79
2023/04/06 01:41:44;;;;;;;13.00;5.95;;;1.70;99.90;;;;;;5092351;28;20085;-78
2023/04/06 01:44:10;;;;;;;14.73;6.00;;;1.60;99.90;;;;;;5076397;28;20139;-79
2023/04/06 01:46:36;;;;;;;12.35;5.82;;;1.60;99.90;;;;;;5092223;28;20131;-78
2023/04/06 01:49:01;;;;;;;11.93;5.72;;;1.60;99.90;;;;;;5075591;28;20052;-79
2023/04/06 01:51:27;;;;;;;14.32;6.13;;;1.60;99.90;;;;;;5092302;28;20055;-78
2023/04/06 01:53:53;;;;;;;13.30;6.40;;;1.60;99.90;;;;;;5092292;28;20480;-77
2023/04/06 01:56:19;;;;;;;11.90;6.05;;;1.60;99.90;;;;;;5075583;28;20047;-78
2023/04/06 01:58:45;;;;;;;13.65;5.93;;;1.50;99.90;;;;;;5076574;28;20048;-78
2023/04/06 02:01:11;;;;;;;12.10;5.97;;;1.50;99.90;;;;;;5059582;28;20090;-79
2023/04/06 02:03:37;;;;;;;13.80;5.70;;;1.50;99.90;;;;;;5075167;28;20048;-81
2023/04/06 02:06:03;;;;;;;11.52;5.35;;;1.50;99.90;;;;;;5075412;28;20040;-77
2023/04/06 02:08:29;;;;;;;12.70;6.32;;;1.60;99.90;;;;;;5092511;28;20047;-77
2023/04/06 02:10:55;;;;;;;15.02;7.22;;;1.60;99.90;;;;;;5093674;28;20479;-78
2023/04/06 02:13:20;;;;;;;17.83;8.45;;;1.60;99.90;;;;;;5091893;28;20109;-79
2023/04/06 02:15:46;;;;;;;19.15;9.25;;;1.50;99.90;;;;;;5075225;28;20138;-78
2023/04/06 02:18:12;;;;;;;21.73;9.30;;;1.50;99.90;;;;;;5094222;28;20055;-78
2023/04/06 02:20:37;;;;;;;19.50;9.45;;;1.40;99.90;;;;;;5096515;28;20490;-79
2023/04/06 02:23:03;;;;;;;20.33;9.27;;;1.40;99.90;;;;;;5062343;28;20131;-78
2023/04/06 02:25:29;;;;;;;17.38;9.45;;;1.40;99.90;;;;;;5079593;28;20094;-80
2023/04/06 02:27:55;;;;;;;18.08;9.93;;;1.30;99.90;;;;;;5095897;28;20127;-79
2023/04/06 02:30:20;;;;;;;21.60;9.73;;;1.30;99.90;;;;;;5079421;28;20052;-80
2023/04/06 02:32:46;;;;;;;18.35;9.60;;;1.20;99.90;;;;;;5095674;28;20096;-78
2023/04/06 02:35:12;;;;;;;22.85;9.52;;;1.20;99.90;;;;;;5078881;28;20043;-78
2023/04/06 02:37:38;;;;;;;18.88;9.43;;;1.20;99.90;;;;;;5095503;28;20095;-80
2023/04/06 02:40:06;;;;;;;20.05;8.43;;;1.10;99.90;;;;;;5063109;28;20052;-79
2023/04/06 02:42:32;;;;;;;15.00;7.80;;;1.10;99.90;;;;;;5095696;28;20104;-80
2023/04/06 02:44:58;;;;;;;17.70;8.05;;;1.10;99.90;;;;;;5101734;28;20063;-78
2023/04/06 02:47:23;;;;;;;17.63;8.00;;;1.10;99.90;;;;;;5099200;28;20395;-78
2023/04/06 02:49:49;;;;;;;16.88;7.70;;;1.00;99.90;;;;;;5116790;28;20051;-78
2023/04/06 02:52:21;;;;;;;16.85;7.47;;;1.00;99.90;;;;;;5099537;28;20046;-78
2023/04/06 02:54:47;;;;;;;19.67;7.97;;;0.90;99.90;;;;;;5081930;28;20047;-79
2023/04/06 02:57:12;;;;;;;13.63;7.00;;;0.90;99.90;;;;;;5082454;28;20039;-80
2023/04/06 02:59:38;;;;;;;17.75;8.05;;;0.90;99.90;;;;;;5099104;28;20044;-79
2023/04/06 03:02:04;;;;;;;17.35;7.22;;;0.80;99.90;;;;;;5066010;28;20513;-79
2023/04/06 03:04:30;;;;;;;17.60;7.50;;;0.80;99.90;;;;;;5082483;28;20456;-78
2023/04/06 03:06:55;;;;;;;17.60;8.05;;;0.80;99.90;;;;;;5098339;28;20121;-79
2023/04/06 03:09:21;;;;;;;14.18;7.07;;;0.70;99.90;;;;;;5098834;28;20079;-77
2023/04/06 03:11:47;;;;;;;15.93;7.38;;;0.70;99.90;;;;;;5081856;28;20051;-79
2023/04/06 03:14:13;;;;;;;16.63;6.97;;;0.70;99.90;;;;;;5116601;28;20040;-79
2023/04/06 03:16:39;;;;;;;15.48;6.80;;;0.70;99.90;;;;;;5098013;28;20503;-77
2023/04/06 03:19:04;;;;;;;15.77;6.55;;;0.70;99.90;;;;;;5116354;28;20086;-80
2023/04/06 03:21:30;;;;;;;17.02;6.97;;;0.70;99.90;;;;;;5081366;28;20046;-79
2023/04/06 03:23:56;;;;;;;12.50;6.28;;;0.60;99.90;;;;;;5098466;28;20055;-79
2023/04/06 03:26:22;;;;;;;16.02;6.50;;;0.70;99.90;;;;;;5098130;28;20047;-78
2023/04/06 03:28:48;;;;;;;18.48;6.68;;;0.60;99.90;;;;;;5116586;28;20138;-78
2023/04/06 03:31:13;;;;;;;14.20;6.65;;;0.60;99.90;;;;;;5081067;28;20061;-81
2023/04/06 03:33:39;;;;;;;12.02;6.40;;;0.60;99.90;;;;;;5098387;28;20047;-79
2023/04/06 03:36:06;;;;;;;14.20;6.32;;;0.50;99.90;;;;;;5097720;28;20044;-78
2023/04/06 03:38:32;;;;;;;17.08;6.85;;;0.50;99.90;;;;;;5064631;28;20079;-79
2023/04/06 03:40:58;;;;;;;16.52;7.25;;;0.40;99.90;;;;;;5116863;28;20493;-78
2023/04/06 03:43:24;;;;;;;14.63;6.53;;;0.40;99.90;;;;;;5081080;28;20035;-78
2023/04/06 03:45:49;;;;;;;16.10;6.75;;;0.40;99.90;;;;;;5115967;28;20133;-80
2023/04/06 03:48:15;;;;;;;16.90;7.55;;;0.40;99.90;;;;;;5116117;28;20093;-78
2023/04/06 03:50:41;;;;;;;16.17;7.22;;;0.30;99.90;;;;;;5097980;28;20120;-78
2023/04/06 03:53:07;;;;;;;15.65;7.15;;;0.30;99.90;;;;;;5115790;28;20040;-78
2023/04/06 03:55:32;;;;;;;17.10;7.20;;;0.30;99.90;;;;;;5097675;28;20468;-78
2023/04/06 03:57:58;;;;;;;15.00;7.18;;;0.30;99.90;;;;;;5080822;28;20050;-77
2023/04/06 04:00:24;;;;;;;14.40;6.95;;;0.40;99.90;;;;;;5097614;28;20043;-77
2023/04/06 04:02:50;;;;;;;16.55;6.97;;;0.30;99.90;;;;;;5097816;28;20059;-77
2023/04/06 04:05:16;;;;;;;14.73;6.72;;;0.40;99.90;;;;;;5097920;28;20043;-77
2023/04/06 04:07:42;;;;;;;15.57;7.15;;;0.40;99.90;;;;;;5080407;28;20483;-77
2023/04/06 04:10:08;;;;;;;15.93;7.03;;;0.40;99.90;;;;;;5115628;28;20047;-78
2023/04/06 04:12:34;;;;;;;15.52;7.40;;;0.30;99.90;;;;;;5097183;28;20051;-77
2023/04/06 04:14:59;;;;;;;14.68;6.72;;;0.30;99.90;;;;;;5097182;28;20052;-77
2023/04/06 04:17:25;;;;;;;14.35;7.07;;;0.30;99.90;;;;;;5079872;28;20187;-78
2023/04/06 04:19:51;;;;;;;16.50;7.75;;;0.40;99.90;;;;;;5115134;28;20048;-79
2023/04/06 04:22:17;;;;;;;15.05;6.97;;;0.40;99.90;;;;;;5097979;28;20329;-78
2023/04/06 04:24:43;;;;;;;14.23;7.43;;;0.40;99.90;;;;;;5063952;28;20109;-78
2023/04/06 04:27:08;;;;;;;14.90;7.22;;;0.40;99.90;;;;;;5096972;28;20118;-79
2023/04/06 04:29:34;;;;;;;16.08;7.40;;;0.30;99.90;;;;;;5097440;28;20036;-77
2023/04/06 04:32:00;;;;;;;13.50;6.57;;;0.30;99.90;;;;;;5097052;28;20116;-77
2023/04/06 04:34:26;;;;;;;15.73;7.30;;;0.30;99.90;;;;;;5080293;28;20051;-76
2023/04/06 04:36:52;;;;;;;16.95;8.32;;;0.40;99.90;;;;;;5096496;28;20084;-78
2023/04/06 04:39:18;;;;;;;15.95;7.30;;;0.30;99.90;;;;;;5079901;28;20035;-77
2023/04/06 04:41:44;;;;;;;16.42;7.30;;;0.30;99.90;;;;;;5114931;28;20058;-77
2023/04/06 04:44:10;;;;;;;15.43;7.20;;;0.30;99.90;;;;;;5080738;28;20058;-77
2023/04/06 04:46:35;;;;;;;13.20;6.88;;;0.30;99.90;;;;;;5096574;28;20495;-78
2023/04/06 04:49:01;;;;;;;16.25;7.75;;;0.40;99.90;;;;;;5079594;28;20081;-78
2023/04/06 04:51:27;;;;;;;18.95;7.00;;;0.30;99.90;;;;;;5114146;28;20126;-78
2023/04/06 04:53:52;;;;;;;15.43;7.60;;;0.40;99.90;;;;;;5114506;28;20043;-77
2023/04/06 04:56:18;;;;;;;16.50;7.93;;;0.30;99.90;;;;;;5062830;28;20155;-77
2023/04/06 04:58:44;;;;;;;15.02;7.30;;;0.40;99.90;;;;;;5079322;28;20111;-77
2023/04/06 05:01:09;;;;;;;15.88;7.55;;;0.30;99.90;;;;;;5096184;28;20107;-78
2023/04/06 05:03:38;;;;;;;19.50;7.22;;;0.30;99.90;;;;;;5062962;28;20643;-78
2023/04/06 05:06:04;;;;;;;17.90;7.18;;;0.40;99.90;;;;;;5114100;28;20047;-78
2023/04/06 05:08:30;;;;;;;15.57;7.47;;;0.40;99.90;;;;;;5096077;28;20054;-78
2023/04/06 05:10:56;;;;;;;14.40;7.30;;;0.40;99.90;;;;;;5113998;28;20488;-78
2023/04/06 05:13:22;;;;;;;15.60;7.28;;;0.40;99.90;;;;;;5079210;28;20044;-79
2023/04/06 05:15:48;;;;;;;20.33;7.80;;;0.50;99.90;;;;;;5114521;28;20048;-78
2023/04/06 05:18:14;;;;;;;17.70;8.05;;;0.60;99.90;;;;;;5095886;28;20487;-77
2023/04/06 05:20:40;;;;;;;15.95;7.80;;;0.60;99.90;;;;;;5095866;28;20049;-79
2023/04/06 05:23:06;;;;;;;15.75;7.65;;;0.60;99.90;;;;;;5096042;28;20048;-79
2023/04/06 05:25:32;;;;;;;17.27;8.65;;;0.60;99.90;;;;;;5113521;28;20130;-77
2023/04/06 05:27:58;;;;;;;20.83;8.57;;;0.60;99.90;;;;;;5113913;28;20047;-76
2023/04/06 05:30:24;;;;;;;18.02;8.45;;;0.60;99.90;;;;;;5096251;28;20610;-77
2023/04/06 05:32:50;;;;;;;17.60;8.32;;;0.60;99.90;;;;;;5095777;28;20048;-78
2023/04/06 05:35:17;;;;;;;19.65;8.50;;;0.70;99.90;;;;;;5095614;28;20051;-76
2023/04/06 05:37:43;;;;;;;16.27;7.73;;;0.70;99.90;;;;;;5095727;28;20097;-77
2023/04/06 05:40:09;;;;;;;16.55;7.88;;;0.80;99.90;;;;;;5079170;28;20342;-77
2023/04/06 05:42:42;;;;;;;24.15;13.77;;;0.90;99.90;;;;;;5113751;28;20051;-76
2023/04/06 05:45:10;;;;;;;20.45;9.95;;;0.90;99.90;;;;;;5113871;28;20501;-76
2023/04/06 05:47:36;;;;;;;33.95;19.75;;;1.00;99.90;;;;;;5113772;28;20062;-77
2023/04/06 05:50:03;;;;;;;18.77;10.40;;;1.10;99.90;;;;;;5096478;28;20423;-77
2023/04/06 05:52:28;;;;;;;17.45;9.02;;;1.20;99.90;;;;;;5096569;28;20380;-78
2023/04/06 05:54:54;;;;;;;18.33;8.15;;;1.30;99.90;;;;;;5099788;28;20051;-78
2023/04/06 05:57:20;;;;;;;17.77;8.18;;;1.50;99.90;;;;;;5083185;28;20043;-78
2023/04/06 05:59:46;;;;;;;17.70;8.07;;;1.60;99.90;;;;;;5116390;28;20104;-77
2023/04/06 06:02:12;;;;;;;18.80;9.10;;;1.60;99.90;;;;;;5099698;28;20098;-77
2023/04/06 06:04:37;;;;;;;19.15;9.45;;;1.70;99.90;;;;;;5100506;28;20043;-78
2023/04/06 06:07:03;;;;;;;18.23;8.38;;;1.80;99.90;;;;;;5100271;28;20059;-77
2023/04/06 06:09:29;;;;;;;16.27;8.63;;;1.90;99.90;;;;;;5117390;28;20397;-78
2023/04/06 06:11:55;;;;;;;17.50;7.95;;;2.00;99.90;;;;;;5082830;28;20047;-79
2023/04/06 06:14:21;;;;;;;17.63;8.25;;;2.10;99.90;;;;;;5099272;28;20498;-77
2023/04/06 06:16:47;;;;;;;18.73;8.02;;;2.20;99.90;;;;;;5099001;28;20488;-78
2023/04/06 06:19:13;;;;;;;16.75;8.63;;;2.20;99.90;;;;;;5117368;28;20055;-78
2023/04/06 06:21:39;;;;;;;16.15;7.20;;;2.40;99.90;;;;;;5082579;28;20052;-79
2023/04/06 06:24:06;;;;;;;16.92;7.55;;;2.40;99.90;;;;;;5099478;28;20443;-77
2023/04/06 06:26:31;;;;;;;13.88;6.38;;;2.50;99.90;;;;;;5082543;28;20050;-80
2023/04/06 06:28:57;;;;;;;16.15;8.02;;;2.60;99.90;;;;;;5082145;28;20047;-78
2023/04/06 06:31:24;;;;;;;16.77;6.55;;;2.60;99.90;;;;;;5117211;28;20475;-78
2023/04/06 06:33:51;;;;;;;18.88;7.95;;;2.70;99.90;;;;;;5082520;28;20059;-79
2023/04/06 06:36:17;;;;;;;19.08;8.82;;;2.70;99.90;;;;;;5099815;28;20058;-78
2023/04/06 06:38:44;;;;;;;16.52;8.30;;;2.80;99.90;;;;;;5082292;28;20051;-78
2023/04/06 06:41:10;;;;;;;18.33;8.23;;;2.90;99.90;;;;;;5099184;28;20505;-78
2023/04/06 06:43:36;;;;;;;18.45;7.35;;;3.00;99.90;;;;;;5117164;28;20093;-80
2023/04/06 06:46:03;;;;;;;17.17;8.55;;;3.00;99.90;;;;;;5117065;28;20409;-79
2023/04/06 06:48:28;;;;;;;14.13;7.60;;;3.10;99.90;;;;;;5117052;28;20050;-77
2023/04/06 06:50:55;;;;;;;16.60;7.90;;;3.30;99.90;;;;;;5116728;28;20043;-78
2023/04/06 06:53:21;;;;;;;18.52;7.70;;;3.40;99.90;;;;;;5098611;28;20054;-77
2023/04/06 06:55:48;;;;;;;20.20;9.93;;;3.50;99.90;;;;;;5099292;28;20040;-80
2023/04/06 06:58:14;;;;;;;18.80;9.43;;;3.50;99.90;;;;;;5116451;28;20039;-79
2023/04/06 07:00:40;;;;;;;19.00;8.70;;;3.60;99.90;;;;;;5098432;28;20546;-80
2023/04/06 07:03:06;;;;;;;17.77;8.25;;;3.70;99.90;;;;;;5098512;28;20047;-78
2023/04/06 07:05:32;;;;;;;18.83;8.30;;;3.80;99.90;;;;;;5116458;28;20044;-79
2023/04/06 07:07:58;;;;;;;13.88;6.20;;;4.10;99.90;;;;;;5098478;28;20071;-77
2023/04/06 07:10:24;;;;;;;20.67;7.70;;;4.20;99.90;;;;;;5098763;28;20075;-78
2023/04/06 07:12:49;;;;;;;15.85;7.80;;;4.30;99.90;;;;;;5098441;28;20093;-76
2023/04/06 07:15:16;;;;;;;22.45;10.93;;;4.30;99.90;;;;;;5098385;28;20131;-79
2023/04/06 07:17:44;;;;;;;24.48;12.82;;;4.40;99.90;;;;;;5098544;28;20100;-78
2023/04/06 07:20:11;;;;;;;17.92;9.27;;;4.50;99.90;;;;;;5098366;28;20044;-79
2023/04/06 07:22:37;;;;;;;23.20;11.05;;;4.50;99.90;;;;;;5099180;28;20083;-77
2023/04/06 07:25:04;;;;;;;21.20;9.57;;;4.60;99.90;;;;;;5082108;28;20059;-76
2023/04/06 07:27:29;;;;;;;22.02;9.20;;;4.60;99.90;;;;;;5116309;28;20082;-78
2023/04/06 07:29:55;;;;;;;20.85;8.63;;;4.70;99.90;;;;;;5081720;28;20461;-80
2023/04/06 07:32:21;;;;;;;17.08;8.18;;;4.80;99.90;;;;;;5116220;28;20043;-80
2023/04/06 07:34:47;;;;;;;19.48;9.30;;;5.00;99.90;;;;;;5097929;28;20097;-80
2023/04/06 07:37:12;;;;;;;15.23;7.22;;;5.10;99.90;;;;;;5098003;28;20051;-78
2023/04/06 07:39:38;;;;;;;23.95;9.07;;;5.30;99.90;;;;;;5115022;28;20047;-75
2023/04/06 07:42:04;;;;;;;16.15;7.18;;;5.40;99.90;;;;;;5115743;28;20043;-83
2023/04/06 07:44:30;;;;;;;19.65;8.80;;;5.50;99.90;;;;;;5097634;28;20081;-77
2023/04/06 07:46:56;;;;;;;19.45;8.98;;;5.70;99.90;;;;;;5097408;28;20066;-77
2023/04/06 07:49:22;;;;;;;21.27;9.02;;;5.70;99.90;;;;;;5097819;28;20059;-79
2023/04/06 07:51:48;;;;;;;27.00;11.13;;;5.80;99.90;;;;;;5097928;28;20066;-79
2023/04/06 07:54:14;;;;;;;21.30;9.70;;;6.00;99.90;;;;;;5097773;28;20569;-76
2023/04/06 07:56:40;;;;;;;23.30;9.57;;;6.10;99.90;;;;;;5116452;28;20051;-80
2023/04/06 07:59:06;;;;;;;22.70;7.88;;;6.20;99.90;;;;;;5097187;28;20124;-80
2023/04/06 08:01:32;;;;;;;20.05;9.40;;;6.40;99.90;;;;;;5098248;28;20047;-77
2023/04/06 08:03:58;;;;;;;19.02;8.95;;;6.50;99.90;;;;;;5115911;28;20395;-79
2023/04/06 08:06:24;;;;;;;21.90;10.47;;;6.60;99.90;;;;;;5115571;28;20082;-80
2023/04/06 08:08:50;;;;;;;24.30;9.80;;;6.60;99.90;;;;;;5097575;28;20043;-78
2023/04/06 08:11:16;;;;;;;24.95;10.27;;;6.80;99.90;;;;;;5115858;28;20076;-78
2023/04/06 08:13:42;;;;;;;21.50;10.20;;;6.90;99.90;;;;;;5115247;28;20058;-82
2023/04/06 08:16:08;;;;;;;18.58;8.77;;;7.10;99.90;;;;;;5114794;28;20468;-79
2023/04/06 08:18:34;;;;;;;20.95;10.68;;;7.30;99.90;;;;;;5115420;28;20515;-81
2023/04/06 08:20:59;;;;;;;20.65;10.50;;;7.40;99.90;;;;;;5097278;28;20063;-77
2023/04/06 08:23:25;;;;;;;23.27;10.57;;;7.40;99.90;;;;;;5063866;28;20054;-81
2023/04/06 08:25:54;;;;;;;22.25;11.15;;;7.50;99.90;;;;;;5115227;28;20043;-78
2023/04/06 08:28:21;;;;;;;24.63;11.25;;;7.70;99.90;;;;;;5096987;28;20059;-78
2023/04/06 08:30:47;;;;;;;22.02;9.82;;;7.80;99.90;;;;;;5096955;28;20056;-81
2023/04/06 08:33:12;;;;;;;23.95;10.85;;;8.00;99.90;;;;;;5080318;28;20127;-79
2023/04/06 08:35:38;;;;;;;21.17;10.60;;;8.20;99.90;;;;;;5115742;28;20132;-78
2023/04/06 08:38:04;;;;;;;23.77;10.90;;;8.40;99.90;;;;;;5114941;28;20043;-79
2023/04/06 08:40:35;;;;;;;27.83;12.80;;;8.70;99.90;;;;;;5097262;28;20373;-80
2023/04/06 08:43:08;;;;;;;23.52;12.05;;;8.80;99.90;;;;;;5081795;28;20048;-84
2023/04/06 08:45:34;;;;;;;22.88;11.27;;;9.00;99.90;;;;;;5097998;28;20043;-73
2023/04/06 08:48:02;;;;;;;25.10;11.90;;;9.10;99.50;;;;;;5115689;28;20055;-70
2023/04/06 08:50:30;;;;;;;25.30;11.80;;;9.20;99.00;;;;;;5114582;28;20126;-77
2023/04/06 08:52:56;;;;;;;23.60;11.27;;;9.30;99.20;;;;;;5079785;28;20458;-76
2023/04/06 08:55:22;;;;;;;26.45;10.77;;;9.40;99.20;;;;;;5079590;28;20044;-78
2023/04/06 08:57:48;;;;;;;23.80;11.73;;;9.50;98.50;;;;;;5115505;28;20043;-77
2023/04/06 09:00:15;;;;;;;22.80;12.02;;;9.50;98.20;;;;;;5114358;28;20048;-77
2023/04/06 09:02:43;;;;;;;26.70;12.65;;;9.70;98.60;;;;;;5096404;28;20454;-77
2023/04/06 09:05:10;;;;;;;22.20;10.30;;;9.80;98.50;;;;;;5096244;28;20091;-78
2023/04/06 09:07:36;;;;;;;27.17;12.05;;;9.80;98.00;;;;;;5079591;28;20051;-75
2023/04/06 09:10:04;;;;;;;23.38;10.77;;;9.90;97.50;;;;;;5097011;28;20047;-79
2023/04/06 09:12:32;;;;;;;23.20;10.43;;;9.90;96.80;;;;;;5079657;28;20127;-77
2023/04/06 09:14:59;;;;;;;18.02;7.68;;;10.00;96.20;;;;;;5096227;28;20044;-74
2023/04/06 09:17:30;;;;;;;23.63;10.95;;;10.00;95.80;;;;;;5114013;28;20070;-79
2023/04/06 09:19:56;;;;;;;25.45;11.77;;;10.00;96.00;;;;;;5096362;28;20051;-75
2023/04/06 09:22:24;;;;;;;25.23;11.98;;;10.00;96.00;;;;;;5114783;28;20044;-77
2023/04/06 09:24:52;;;;;;;25.50;12.10;;;10.10;95.80;;;;;;5079191;28;20048;-76
2023/04/06 09:27:33;;;;;;;25.30;11.90;;;10.20;96.20;;;;;;5095698;28;20108;-73
2023/04/06 09:30:13;;;;;;;25.15;12.27;;;10.30;94.90;;;;;;5096715;28;20083;-75
2023/04/06 09:32:46;;;;;;;24.98;12.75;;;10.30;95.30;;;;;;5096717;28;20044;-76
2023/04/06 09:35:12;;;;;;;20.08;10.02;;;10.30;95.00;;;;;;5095703;28;20520;-77
2023/04/06 09:37:38;;;;;;;25.63;9.48;;;10.50;94.60;;;;;;5112822;28;20084;-78
2023/04/06 09:40:05;;;;;;;23.42;9.82;;;10.60;93.80;;;;;;5113426;28;20047;-75
2023/04/06 09:42:31;;;;;;;26.48;12.35;;;10.60;93.70;;;;;;5078898;28;20126;-78
2023/04/06 09:44:57;;;;;;;21.85;9.98;;;10.60;93.50;;;;;;5113923;28;20043;-79
2023/04/06 09:47:26;;;;;;;26.45;12.88;;;10.60;93.20;;;;;;5114199;28;20054;-76
2023/04/06 09:49:57;;;;;;;22.92;10.32;;;10.60;93.70;;;;;;5078967;28;20105;-79
2023/04/06 09:52:37;;;;;;;28.92;13.63;;;10.70;93.50;;;;;;5096276;28;20485;-76
2023/04/06 09:55:04;;;;;;;25.23;12.63;;;10.70;94.00;;;;;;5095907;28;20463;-75
2023/04/06 09:57:34;;;;;;;26.75;13.23;;;10.80;93.70;;;;;;5079137;28;20471;-78
2023/04/06 10:00:11;;;;;;;28.55;13.35;;;10.80;94.30;;;;;;5095394;28;20471;-76
2023/04/06 10:02:59;;;;;;;28.65;13.15;;;10.80;94.10;;;;;;5096350;28;20052;-76
2023/04/06 10:05:35;;;;;;;26.95;13.40;;;11.00;93.30;;;;;;5078853;28;20127;-74
2023/04/06 10:08:07;;;;;;;26.42;13.95;;;11.00;93.40;;;;;;5095581;28;20104;-75
2023/04/06 10:10:33;;;;;;;27.77;14.48;;;11.10;93.40;;;;;;5079030;28;20091;-76
2023/04/06 10:12:59;;;;;;;32.20;12.68;;;11.10;93.70;;;;;;5095449;28;20425;-77
2023/04/06 10:15:28;;;;;;;27.95;14.18;;;11.20;93.60;;;;;;5113420;28;20082;-77
2023/04/06 10:17:54;;;;;;;28.83;14.02;;;11.30;93.60;;;;;;5095965;28;20043;-77
2023/04/06 10:20:23;;;;;;;28.58;14.45;;;11.30;93.60;;;;;;5095946;28;20384;-76
2023/04/06 10:23:27;;;;;;;28.85;14.35;;;11.40;92.80;;;;;;5113521;28;20051;-76
2023/04/06 10:25:57;;;;;;;29.73;14.68;;;11.50;92.70;;;;;;5071202;28;20048;-75
2023/04/06 10:28:25;;;;;;;34.17;14.45;;;11.60;93.30;;;;;;5113277;28;20085;-78
2023/04/06 10:30:56;;;;;;;;;;;11.80;92.70;;;;;;5079058;28;20043;-75
2023/04/06 10:33:22;;;;;;;30.80;14.75;;;11.90;91.80;;;;;;5113228;28;19920;-76
2023/04/06 10:35:48;;;;;;;35.70;15.48;;;11.80;91.20;;;;;;5096267;28;20069;-75
2023/04/06 10:38:14;;;;;;;31.48;14.57;;;11.80;90.80;;;;;;5078173;28;20082;-77
2023/04/06 10:40:46;;;;;;;30.50;14.00;;;12.00;91.50;;;;;;5098901;28;20468;-76
2023/04/06 10:43:22;;;;;;;31.27;14.93;;;12.10;90.80;;;;;;5066265;28;20056;-76
2023/04/06 10:45:59;;;;;;;33.95;15.55;;;12.20;91.10;;;;;;5116906;28;20063;-76
2023/04/06 10:48:35;;;;;;;33.72;15.82;;;12.20;91.60;;;;;;5116992;28;20050;-77
2023/04/06 10:51:02;;;;;;;33.40;14.00;;;12.40;90.90;;;;;;5099625;28;20043;-76
2023/04/06 10:53:28;;;;;;;32.33;14.80;;;12.50;88.60;;;;;;5098965;28;20043;-75
2023/04/06 10:55:57;;;;;;;28.77;12.63;;;12.30;87.20;;;;;;5117284;28;20287;-76
2023/04/06 10:58:27;;;;;;;34.42;15.63;;;12.40;88.40;;;;;;5098382;28;20130;-76
2023/04/06 11:00:54;;;;;;;34.00;15.43;;;12.50;88.90;;;;;;5098465;28;20545;-75
2023/04/06 11:03:20;;;;;;;33.35;15.10;;;12.70;87.90;;;;;;5116539;28;20471;-76
2023/04/06 11:05:47;;;;;;;29.20;14.50;;;12.70;87.50;;;;;;5116241;28;20130;-76
2023/04/06 11:08:26;;;;;;;;;;;12.80;87.00;;;;;;5117050;28;20100;-75
2023/04/06 11:10:51;;;;;;;32.47;16.45;;;12.60;84.50;;;;;;5116869;28;19990;-78
2023/04/06 11:13:17;;;;;;;31.65;15.07;;;12.60;85.30;;;;;;5116643;28;20050;-76
2023/04/06 11:15:43;;;;;;;39.00;17.55;;;12.70;86.00;;;;;;5098296;28;20046;-77
2023/04/06 11:18:11;;;;;;;30.83;13.73;;;12.70;85.80;;;;;;5098393;28;20039;-75
2023/04/06 11:20:36;;;;;;;34.17;14.85;;;12.80;84.80;;;;;;5116690;28;20035;-78
2023/04/06 11:23:03;;;;;;;33.70;16.65;;;13.00;83.00;;;;;;5097830;28;20046;-76
2023/04/06 11:25:31;;;;;;;35.42;16.73;;;13.00;83.40;;;;;;5116446;28;20153;-77
2023/04/06 11:27:57;;;;;;;32.40;16.27;;;13.00;83.40;;;;;;5097945;28;20036;-76
2023/04/06 11:30:23;;;;;;;32.33;15.37;;;13.10;84.00;;;;;;5116051;28;20050;-76
2023/04/06 11:32:49;;;;;;;34.33;15.63;;;13.20;83.30;;;;;;5081509;28;20055;-76
2023/04/06 11:35:22;;;;;;;33.65;16.55;;;13.30;84.00;;;;;;5115710;28;20086;-76
2023/04/06 11:37:50;;;;;;;35.22;16.42;;;13.40;83.70;;;;;;5098183;28;20126;-76
2023/04/06 11:40:20;;;;;;;35.45;16.63;;;13.60;83.50;;;;;;5098273;28;20126;-75
2023/04/06 11:42:55;;;;;;;32.45;14.65;;;13.70;84.30;;;;;;5097752;28;20483;-77
2023/04/06 11:45:22;;;;;;;33.38;16.40;;;13.90;80.60;;;;;;5098155;28;20090;-77
2023/04/06 11:48:00;;;;;;;35.65;17.75;;;13.90;82.50;;;;;;5116380;28;20051;-75
2023/04/06 11:50:33;;;;;;;23.63;11.23;;;13.70;80.80;;;;;;5116119;28;20126;-74
2023/04/06 11:53:01;;;;;;;35.22;16.77;;;14.10;80.00;;;;;;5116725;28;20062;-76
2023/04/06 11:55:27;;;;;;;31.95;15.90;;;14.20;80.00;;;;;;5115378;28;20483;-74
2023/04/06 11:57:53;;;;;;;32.53;15.27;;;14.10;80.80;;;;;;5115994;28;20131;-78
2023/04/06 12:00:20;;;;;;;36.00;16.85;;;14.20;79.30;;;;;;5115966;28;20087;-74
2023/04/06 12:02:48;;;;;;;34.40;16.08;;;14.10;79.90;;;;;;5115659;28;20077;-74
2023/04/06 12:05:14;;;;;;;;;;;14.10;81.00;;;;;;5081243;28;20134;-75
2023/04/06 12:07:39;;;;;;;35.55;15.95;;;13.70;81.30;;;;;;5115639;28;20283;-75
2023/04/06 12:10:05;;;;;;;31.25;15.00;;;13.80;82.20;;;;;;5097480;28;20078;-75
2023/04/06 12:12:32;;;;;;;34.03;15.93;;;13.70;81.50;;;;;;5080381;28;20074;-74
2023/04/06 12:14:58;;;;;;;33.23;15.90;;;13.80;82.40;;;;;;5115489;28;20062;-77
2023/04/06 12:17:24;;;;;;;32.43;15.87;;;13.70;80.40;;;;;;5115810;28;20050;-74
2023/04/06 12:19:50;;;;;;;31.98;15.38;;;13.80;81.50;;;;;;5097162;28;20289;-76
2023/04/06 12:22:17;;;;;;;34.53;16.77;;;13.80;80.40;;;;;;5080696;28;20047;-76
2023/04/06 12:24:43;;;;;;;34.97;16.55;;;13.60;81.60;;;;;;5097252;28;20096;-75
2023/04/06 12:27:11;;;;;;;34.85;16.10;;;13.80;83.50;;;;;;5097126;28;20425;-75
2023/04/06 12:29:37;;;;;;;29.98;14.27;;;14.10;83.60;;;;;;5097160;28;20051;-77
2023/04/06 12:32:03;;;;;;;32.70;15.77;;;14.00;81.80;;;;;;5080671;28;20059;-76
2023/04/06 12:34:29;;;;;;;36.80;17.02;;;14.10;80.60;;;;;;5097019;28;20051;-75
2023/04/06 12:36:55;;;;;;;31.50;14.93;;;13.90;81.50;;;;;;5097726;28;20139;-76
2023/04/06 12:39:22;;;;;;;30.15;14.38;;;14.10;83.10;;;;;;5097055;28;20055;-74